Dalby Springs, Texas
Current Conditions -  °F | °C
As of 8:35 AM on Friday 28 Nov 2014 (Local Time) from KOSA Reporting Station
Clear Clear  
Wind Chill:   Ceiling: Unl
Heat Index:   Visibility: 2.5mi
Dew Point:   Wind: 5mph
Humidity: 79%   Direction: 140°SE
Pressure: 30.33"   Gusts: NA
Location:  33.4703°N, 94.6281°W
Report Text: KOSA 281435Z AUTO 14004KT 2 1/2SM CLR 05/02 A3033 RMK AO1 T00520018
Loading
Personal Weather Stations






























Interactive Weather Map New forecast layout! Learn more

10-Day Weather Forecast

Advertisements
Track Severe Weather on mobile